Portada
METAR-TAF:

METAR-TAF

Aeroports :

Vijayawada, Índia

latitud: 16-31-44N, longitud: 80-47-45E, altitud: 25 m

Observació

L'informe es va fer fa 2 hores i 35 minuts, a les 16:30 UTC
Vent calma
Temperatura 28°C
Humitat 79%
Pressió 1012 hPa
Visibilitat: 2000 m
boirina

METAR: VOBZ 221630Z 00000KT 2000 BR NSC 28/24 Q1012 NOSIG

Hora: 00:35 (19:05 UTC)

Pronòstic

L'informe es va fer fa 11 hores i 5 minuts, a les 08:00 UTC
Pronòstic vàlid del 22 a les 09 UTC al 22 a les 18 UTC
Vent 5 kt del Sud
Visibilitat: 6000 m
Escasses núvols a una alçada de 2000 ft
Evolucionant progressivament
l' 22 a les 12 UTC al 22 a les 14 UTC
Vent kt del Nord
Visibilitat: 3000 m
Escasses núvols a una alçada de 2000 ft
calitja

TAF: VOBZ 220800Z 2209/2218 19005KT 6000 FEW020 BECMG 2212/2214 00000KT 3000 HZ FEW020

Observacions i pronòstics meteorològics de més de 4000 aeroports (METAR i TAF).

Les estacions disponibles són els punts grocs i vermells al mapa.

Posi el ratolí al punt desitjat per veure el nom de l'estació.

Feu clic per veure les observacions i els pronòstics meteorològics.

Per canviar el mapa: feu clic els botons verds amb una creu de color negre per apropar; al botó verd amb un guió per allunyar la imatge; o en les fletxes verdes per a mapes adjacents.


METAR-TAF: